Time;durP1;ratioP1;P1;durP2;ratioP2;P2;SDS_P1;SDS_P2;PMS_P1;PMS_P2;Temp;Humidity;BMP_temperature;BMP_pressure;BME280_temperature;BME280_humidity;BME280_pressure;Samples;Min_cycle;Max_cycle;Signal;HPM_P1;HPM_P2
2022/01/28 00:02:34;;;;;;;12.97;4.87;;;5.70;1.00;;;;;;6261409;28;20491;-57
2022/01/28 00:05:39;;;;;;;16.03;5.97;;;5.90;1.00;;;;;;6278609;28;20369;-58
2022/01/28 00:08:42;;;;;;;10.43;4.87;;;5.70;1.00;;;;;;6260205;28;20238;-57
2022/01/28 00:11:46;;;;;;;10.93;4.77;;;5.80;1.00;;;;;;6262319;28;20806;-56
2022/01/28 00:14:54;;;;;;;13.83;5.40;;;6.00;1.00;;;;;;6281005;28;20316;-57
2022/01/28 00:18:28;;;;;;;8.63;4.50;;;5.80;1.00;;;;;;6268093;28;20264;-57
2022/01/28 00:38:33;;;;;;;11.53;4.80;;;5.80;1.00;;;;;;6271776;28;20234;-56
2022/01/28 00:41:36;;;;;;;10.57;5.07;;;5.80;1.00;;;;;;6271197;28;20276;-56
2022/01/28 00:44:40;;;;;;;14.57;5.50;;;5.90;1.00;;;;;;6289891;28;20322;-59
2022/01/28 00:47:44;;;;;;;13.50;5.60;;;6.00;1.00;;;;;;6288315;28;20615;-58
2022/01/28 00:50:47;;;;;;;6.20;5.10;;;5.90;1.00;;;;;;6279185;28;20305;-57
2022/01/28 00:53:49;;;;;;;11.23;5.20;;;6.00;1.00;;;;;;6263833;28;20297;-55
2022/01/28 00:56:52;;;;;;;12.67;5.67;;;6.00;1.00;;;;;;6263456;28;20233;-56
2022/01/28 00:59:56;;;;;;;11.13;4.73;;;5.80;1.00;;;;;;6263508;28;20871;-57
2022/01/28 01:02:59;;;;;;;10.10;5.37;;;5.80;1.00;;;;;;6285827;28;20267;-56
2022/01/28 01:06:02;;;;;;;12.57;4.90;;;5.80;1.00;;;;;;6288370;28;20614;-57
2022/01/28 01:09:05;;;;;;;18.83;6.43;;;5.70;1.00;;;;;;6287466;28;20287;-57
2022/01/28 01:12:10;;;;;;;17.37;5.67;;;5.80;1.00;;;;;;6286246;28;20233;-58
2022/01/28 01:15:20;;;;;;;12.07;5.77;;;5.80;1.00;;;;;;6288199;28;20240;-56
2022/01/28 01:18:28;;;;;;;14.93;5.27;;;5.80;1.00;;;;;;6284206;28;20226;-57
2022/01/28 01:21:37;;;;;;;15.87;5.70;;;5.90;1.00;;;;;;6284994;28;20284;-56
2022/01/28 01:24:49;;;;;;;15.43;5.80;;;5.70;1.00;;;;;;6289070;28;20237;-57
2022/01/28 01:27:55;;;;;;;10.77;5.10;;;5.90;1.00;;;;;;6287930;28;20885;-57
2022/01/28 01:31:01;;;;;;;12.67;5.83;;;5.90;1.00;;;;;;6273924;28;20242;-55
2022/01/28 01:34:11;;;;;;;11.47;5.30;;;6.10;1.00;;;;;;6281896;28;20241;-56
2022/01/28 01:37:13;;;;;;;15.87;5.47;;;6.10;1.00;;;;;;6287441;28;20698;-57
2022/01/28 01:40:25;;;;;;;11.30;4.90;;;5.70;1.00;;;;;;6284509;28;20315;-59
2022/01/28 01:43:41;;;;;;;14.83;5.47;;;5.80;1.00;;;;;;6280610;28;20229;-56
2022/01/28 01:47:10;;;;;;;13.37;5.57;;;5.60;1.00;;;;;;6288049;28;20225;-57
2022/01/28 01:53:33;;;;;;;16.53;5.37;;;5.70;1.00;;;;;;6263721;28;20235;-58
2022/01/28 01:56:39;;;;;;;12.90;5.60;;;5.70;1.00;;;;;;6262580;28;20246;-55
2022/01/28 01:59:43;;;;;;;15.30;5.37;;;5.70;1.00;;;;;;6254579;28;20294;-57
2022/01/28 02:02:48;;;;;;;13.13;5.63;;;5.90;1.00;;;;;;6269401;28;20238;-56
2022/01/28 02:05:51;;;;;;;10.83;5.17;;;5.80;1.00;;;;;;6286744;28;20256;-58
2022/01/28 02:08:54;;;;;;;11.53;5.13;;;5.80;1.00;;;;;;6267548;28;20287;-58
2022/01/28 02:11:57;;;;;;;13.20;6.13;;;5.70;1.00;;;;;;6262431;28;20320;-57
2022/01/28 02:14:59;;;;;;;19.33;5.60;;;5.70;1.00;;;;;;6278378;28;20225;-57
2022/01/28 02:18:04;;;;;;;12.13;5.30;;;5.90;1.00;;;;;;6286013;28;20237;-57
2022/01/28 02:21:10;;;;;;;18.07;5.60;;;5.70;1.00;;;;;;6262283;28;20238;-58
2022/01/28 02:24:17;;;;;;;17.73;5.33;;;5.60;1.00;;;;;;6255133;28;20756;-55
2022/01/28 02:27:19;;;;;;;13.80;5.13;;;5.60;1.00;;;;;;6284077;28;20620;-55
2022/01/28 02:30:22;;;;;;;22.03;6.03;;;5.50;1.00;;;;;;6284488;28;20257;-56
2022/01/28 02:33:26;;;;;;;15.93;5.43;;;5.90;1.00;;;;;;6285785;28;20730;-61
2022/01/28 02:36:31;;;;;;;12.43;5.43;;;5.60;1.00;;;;;;6275193;28;20237;-56
2022/01/28 02:39:33;;;;;;;18.67;5.53;;;5.70;1.00;;;;;;6261215;28;20798;-57
2022/01/28 02:42:50;;;;;;;8.83;5.10;;;5.60;1.00;;;;;;6262192;28;20253;-57
2022/01/28 02:45:56;;;;;;;10.87;5.57;;;5.70;1.00;;;;;;6277228;28;20329;-56
2022/01/28 02:49:04;;;;;;;11.93;5.97;;;5.60;1.00;;;;;;6277557;28;20236;-56
2022/01/28 02:52:17;;;;;;;10.73;5.43;;;5.80;1.00;;;;;;6286400;28;20610;-55
2022/01/28 02:55:20;;;;;;;12.17;4.90;;;5.60;1.00;;;;;;6261285;28;20341;-55
2022/01/28 02:58:24;;;;;;;14.37;5.60;;;5.40;1.00;;;;;;6261248;28;20659;-57
2022/01/28 03:01:28;;;;;;;11.87;5.70;;;5.50;1.00;;;;;;6261839;28;21310;-57
2022/01/28 03:04:59;;;;;;;16.80;4.90;;;5.30;1.00;;;;;;6283089;28;20765;-57
2022/01/28 03:08:05;;;;;;;14.60;4.90;;;5.40;1.00;;;;;;6261604;28;20238;-57
2022/01/28 03:14:38;;;;;;;19.07;5.70;;;5.30;1.00;;;;;;6247291;28;20231;-58
2022/01/28 03:17:54;;;;;;;13.10;5.23;;;5.40;1.00;;;;;;6261579;28;20241;-58
2022/01/28 03:21:11;;;;;;;16.10;5.80;;;5.30;1.00;;;;;;6261158;28;20258;-57
2022/01/28 03:24:15;;;;;;;17.23;5.50;;;5.40;1.00;;;;;;6260926;28;20241;-56
2022/01/28 03:27:36;;;;;;;13.73;5.37;;;5.50;1.00;;;;;;6261026;28;20241;-56
2022/01/28 03:30:39;;;;;;;12.03;5.93;;;5.30;1.00;;;;;;6257360;28;20234;-57
2022/01/28 03:33:42;;;;;;;15.63;6.10;;;5.40;1.00;;;;;;6273731;28;20249;-58
2022/01/28 03:36:45;;;;;;;10.93;5.90;;;5.40;1.00;;;;;;6285047;28;20236;-56
2022/01/28 03:39:49;;;;;;;19.13;6.33;;;5.40;1.00;;;;;;6284259;28;20295;-58
2022/01/28 03:42:52;;;;;;;13.23;5.10;;;5.40;1.00;;;;;;6264634;28;20281;-57
2022/01/28 03:45:55;;;;;;;18.87;5.87;;;5.60;1.00;;;;;;6259658;28;20319;-58
2022/01/28 03:48:58;;;;;;;13.10;5.47;;;5.50;1.00;;;;;;6260546;28;20288;-58
2022/01/28 03:52:01;;;;;;;15.97;5.67;;;5.50;1.00;;;;;;6260627;28;20323;-56
2022/01/28 03:55:06;;;;;;;15.93;5.37;;;5.50;1.00;;;;;;6274063;28;20732;-57
2022/01/28 03:58:08;;;;;;;16.00;6.00;;;5.60;1.00;;;;;;6300541;28;20495;-57
2022/01/28 04:01:16;;;;;;;14.20;5.10;;;5.40;1.00;;;;;;6291666;28;20241;-56
2022/01/28 04:05:04;;;;;;;17.20;6.13;;;5.80;1.00;;;;;;6296102;28;20569;-56
2022/01/28 04:11:30;;;;;;;13.77;5.70;;;5.60;1.00;;;;;;6283738;28;20360;-55
2022/01/28 04:14:42;;;;;;;11.57;5.33;;;5.70;1.00;;;;;;6263809;28;20286;-56
2022/01/28 04:17:45;;;;;;;16.63;5.80;;;5.70;1.00;;;;;;6275659;28;20229;-55
2022/01/28 04:20:48;;;;;;;12.50;5.97;;;5.50;1.00;;;;;;6297164;28;20256;-57
2022/01/28 04:23:51;;;;;;;12.40;5.33;;;5.60;1.00;;;;;;6291761;28;20319;-57
2022/01/28 04:26:55;;;;;;;15.57;5.97;;;5.70;1.00;;;;;;6289806;28;20271;-57
2022/01/28 04:29:57;;;;;;;15.20;5.53;;;5.80;1.00;;;;;;6296210;28;20248;-56
2022/01/28 04:33:00;;;;;;;18.03;5.67;;;5.60;1.00;;;;;;6269098;28;22595;-56
2022/01/28 04:36:05;;;;;;;12.60;5.47;;;5.60;1.00;;;;;;6288325;28;20853;-57
2022/01/28 04:39:14;;;;;;;14.17;5.60;;;5.70;1.00;;;;;;6292181;28;20244;-56
2022/01/28 04:42:37;;;;;;;12.10;5.33;;;5.70;1.00;;;;;;6289777;28;20229;-57
2022/01/28 04:45:47;;;;;;;16.67;6.17;;;5.80;1.00;;;;;;6287607;28;20240;-57
2022/01/28 04:48:57;;;;;;;16.10;6.33;;;5.80;1.00;;;;;;6288494;28;20235;-55
2022/01/28 04:52:27;;;;;;;14.80;5.50;;;5.60;1.00;;;;;;6281501;28;20324;-56
2022/01/28 04:55:38;;;;;;;13.33;5.23;;;5.80;1.00;;;;;;6288259;28;20606;-56
2022/01/28 04:58:55;;;;;;;11.27;5.17;;;5.60;1.00;;;;;;6285884;28;20257;-58
2022/01/28 05:02:16;;;;;;;13.63;5.83;;;5.90;1.00;;;;;;6275999;28;20237;-57
2022/01/28 05:05:47;;;;;;;17.20;5.97;;;5.70;1.00;;;;;;6266543;28;20279;-56
2022/01/28 05:12:47;;;;;;;17.03;5.67;;;5.60;1.00;;;;;;6265172;28;20320;-56
2022/01/28 05:16:22;;;;;;;11.20;5.20;;;5.70;1.00;;;;;;6259723;28;20278;-54
2022/01/28 05:26:31;;;;;;;14.80;5.57;;;5.20;1.00;;;;;;6286887;28;20309;-57
2022/01/28 05:29:35;;;;;;;18.00;5.83;;;5.80;1.00;;;;;;6289000;28;20245;-57
2022/01/28 05:32:39;;;;;;;17.23;5.53;;;5.70;1.00;;;;;;6291942;28;20228;-56
2022/01/28 05:35:42;;;;;;;20.27;5.73;;;6.00;1.00;;;;;;6292146;28;21039;-55
2022/01/28 05:38:45;;;;;;;15.33;5.47;;;6.00;1.00;;;;;;6296320;28;20282;-57
2022/01/28 05:41:48;;;;;;;12.63;5.43;;;5.80;1.00;;;;;;6285576;28;20292;-57
2022/01/28 05:44:50;;;;;;;14.80;5.57;;;5.80;1.00;;;;;;6285742;28;20985;-57
2022/01/28 05:47:55;;;;;;;11.73;5.33;;;5.80;1.00;;;;;;6279510;28;20277;-57
2022/01/28 05:50:58;;;;;;;13.93;5.13;;;5.90;1.00;;;;;;6286714;28;20240;-57
2022/01/28 05:54:01;;;;;;;11.23;5.27;;;5.90;1.00;;;;;;6290240;28;20734;-57
2022/01/28 05:57:04;;;;;;;9.53;5.30;;;5.90;1.00;;;;;;6296130;28;20229;-57
2022/01/28 06:00:08;;;;;;;15.17;5.13;;;5.90;1.00;;;;;;6289238;28;20295;-56
2022/01/28 06:03:12;;;;;;;16.00;4.83;;;5.80;1.00;;;;;;6285923;28;20808;-56
2022/01/28 06:06:19;;;;;;;14.37;5.80;;;5.70;1.00;;;;;;6288716;28;20284;-57
2022/01/28 06:09:22;;;;;;;15.67;5.50;;;5.60;1.00;;;;;;6287970;28;20274;-56
2022/01/28 06:12:25;;;;;;;14.70;5.60;;;6.00;1.00;;;;;;6271329;28;20311;-57
2022/01/28 06:15:28;;;;;;;12.57;5.47;;;5.70;1.00;;;;;;6278588;28;20262;-57
2022/01/28 06:18:32;;;;;;;11.47;5.37;;;5.70;1.00;;;;;;6285117;28;20320;-55
2022/01/28 06:21:34;;;;;;;15.10;5.47;;;5.80;1.00;;;;;;6284492;28;20328;-55
2022/01/28 06:24:37;;;;;;;13.80;5.77;;;5.70;1.00;;;;;;6278205;28;20367;-55
2022/01/28 06:27:40;;;;;;;18.73;5.60;;;5.70;1.00;;;;;;6282624;28;20288;-57
2022/01/28 06:30:43;;;;;;;15.27;5.53;;;6.00;1.00;;;;;;6276873;28;20245;-58
2022/01/28 06:33:47;;;;;;;12.57;5.60;;;5.80;1.00;;;;;;6279582;28;20337;-56
2022/01/28 06:36:50;;;;;;;17.53;6.90;;;5.80;1.00;;;;;;6286520;28;20228;-57
2022/01/28 06:39:53;;;;;;;13.17;5.57;;;5.80;1.00;;;;;;6276534;28;20667;-57
2022/01/28 06:42:55;;;;;;;14.10;5.70;;;5.70;1.00;;;;;;6285225;28;20241;-57
2022/01/28 06:45:58;;;;;;;20.27;5.73;;;5.80;1.00;;;;;;6274867;28;20749;-58
2022/01/28 06:49:02;;;;;;;15.90;5.93;;;5.90;1.00;;;;;;6280947;28;20240;-57
2022/01/28 06:52:06;;;;;;;13.80;5.20;;;5.60;1.00;;;;;;6284747;28;20902;-57
2022/01/28 06:55:14;;;;;;;11.53;5.63;;;5.80;1.00;;;;;;6269842;28;21516;-59
2022/01/28 06:58:17;;;;;;;13.00;5.67;;;5.90;1.00;;;;;;6277988;28;20229;-57
2022/01/28 07:01:19;;;;;;;14.93;5.90;;;5.80;1.00;;;;;;6266849;28;20362;-56
2022/01/28 07:04:24;;;;;;;11.33;5.83;;;5.70;1.00;;;;;;6282491;28;20390;-57
2022/01/28 07:07:27;;;;;;;16.63;5.73;;;5.90;1.00;;;;;;6278292;28;20272;-58
2022/01/28 07:10:30;;;;;;;13.90;6.00;;;5.70;1.00;;;;;;6284208;28;20229;-56
2022/01/28 07:13:33;;;;;;;15.40;5.57;;;5.70;1.00;;;;;;6281702;28;20319;-58
2022/01/28 07:16:36;;;;;;;14.77;6.57;;;5.80;1.00;;;;;;6276251;28;20234;-58
2022/01/28 07:19:40;;;;;;;15.20;6.03;;;5.70;1.00;;;;;;6269958;28;20242;-58
2022/01/28 07:22:43;;;;;;;19.27;6.07;;;5.70;1.00;;;;;;6273630;28;20398;-59
2022/01/28 07:25:45;;;;;;;18.50;6.07;;;5.60;1.00;;;;;;6287429;28;20271;-57
2022/01/28 07:28:49;;;;;;;20.00;6.10;;;5.60;1.00;;;;;;6279262;28;20320;-58
2022/01/28 07:31:52;;;;;;;17.00;6.03;;;5.60;1.00;;;;;;6283661;28;20659;-57
2022/01/28 07:34:56;;;;;;;20.03;5.80;;;5.50;1.00;;;;;;6282467;28;20261;-58
2022/01/28 07:37:59;;;;;;;17.30;5.80;;;5.70;1.00;;;;;;6278704;28;20768;-58
2022/01/28 07:41:02;;;;;;;15.97;6.20;;;5.70;1.00;;;;;;6276962;28;20249;-57
2022/01/28 07:44:06;;;;;;;20.27;6.57;;;5.60;1.00;;;;;;6281699;28;20311;-58
2022/01/28 07:47:09;;;;;;;20.33;7.13;;;5.40;1.00;;;;;;6276535;28;20328;-59
2022/01/28 07:50:14;;;;;;;15.37;6.10;;;5.40;1.00;;;;;;6279132;28;20240;-59
2022/01/28 07:53:17;;;;;;;19.70;6.57;;;5.30;1.00;;;;;;6279973;28;20241;-58
2022/01/28 07:56:22;;;;;;;13.23;6.47;;;5.10;1.00;;;;;;6279782;28;20278;-55
2022/01/28 07:59:25;;;;;;;20.57;6.37;;;5.40;1.00;;;;;;6278987;28;20249;-58
2022/01/28 08:02:27;;;;;;;16.57;6.53;;;5.40;1.00;;;;;;6278709;28;20253;-61
2022/01/28 08:05:32;;;;;;;21.47;5.93;;;5.10;1.00;;;;;;6271192;28;20237;-58
2022/01/28 08:08:35;;;;;;;23.67;6.43;;;5.20;1.00;;;;;;6278913;28;20257;-58
2022/01/28 08:11:37;;;;;;;18.97;6.40;;;5.30;1.00;;;;;;6278304;28;20233;-58
2022/01/28 08:14:40;;;;;;;20.87;6.00;;;5.20;1.00;;;;;;6279622;28;20239;-57
2022/01/28 08:17:43;;;;;;;17.33;5.77;;;5.20;1.00;;;;;;6275101;28;20462;-58
2022/01/28 08:20:47;;;;;;;18.10;6.40;;;5.40;1.00;;;;;;6283294;28;20285;-59
2022/01/28 08:23:50;;;;;;;10.40;5.43;;;5.00;1.00;;;;;;6282175;28;20326;-57
2022/01/28 08:26:53;;;;;;;19.00;6.00;;;5.10;1.00;;;;;;6278187;28;20235;-57
2022/01/28 08:29:55;;;;;;;20.20;6.57;;;5.30;1.00;;;;;;6274714;28;20321;-58
2022/01/28 08:32:58;;;;;;;17.73;6.73;;;4.70;1.00;;;;;;6280652;28;20332;-57
2022/01/28 08:36:03;;;;;;;15.23;6.03;;;4.70;1.00;;;;;;6269489;28;20531;-57
2022/01/28 08:39:08;;;;;;;17.73;6.73;;;5.40;1.00;;;;;;6273623;28;20245;-55
2022/01/28 08:42:11;;;;;;;17.60;5.80;;;5.40;1.00;;;;;;6282256;28;20234;-57
2022/01/28 08:45:14;;;;;;;23.60;6.73;;;5.50;1.00;;;;;;6281682;28;20237;-57
2022/01/28 08:48:17;;;;;;;19.83;7.13;;;5.20;1.00;;;;;;6276497;28;20260;-56
2022/01/28 08:51:21;;;;;;;23.00;6.23;;;5.30;1.00;;;;;;6274602;28;20455;-57
2022/01/28 08:54:24;;;;;;;16.50;5.80;;;5.30;1.00;;;;;;6279959;28;20310;-58
2022/01/28 08:57:27;;;;;;;14.27;5.70;;;5.50;1.00;;;;;;6294625;28;20229;-56
2022/01/28 09:00:30;;;;;;;17.93;6.60;;;5.50;1.00;;;;;;6306656;28;20237;-56
2022/01/28 09:03:33;;;;;;;19.40;6.20;;;5.50;1.00;;;;;;6295845;28;20237;-56
2022/01/28 09:06:38;;;;;;;14.90;6.50;;;5.50;1.00;;;;;;6275421;28;20488;-56
2022/01/28 09:09:48;;;;;;;19.90;6.93;;;5.70;1.00;;;;;;6278037;28;20276;-56
2022/01/28 09:13:10;;;;;;;15.60;6.43;;;5.60;1.00;;;;;;6285017;28;20257;-57
2022/01/28 09:16:13;;;;;;;23.43;6.03;;;5.60;1.00;;;;;;6280152;28;20291;-56
2022/01/28 09:19:16;;;;;;;13.77;5.83;;;5.80;1.00;;;;;;6286837;28;20244;-56
2022/01/28 09:22:20;;;;;;;17.17;5.93;;;5.90;1.00;;;;;;6285041;28;20326;-57
2022/01/28 09:25:23;;;;;;;19.20;6.83;;;5.80;1.00;;;;;;6286475;28;20350;-57
2022/01/28 09:28:26;;;;;;;16.63;5.90;;;5.90;1.00;;;;;;6282167;28;20425;-57
2022/01/28 09:31:29;;;;;;;19.23;5.53;;;5.90;1.00;;;;;;6286940;28;20233;-57
2022/01/28 09:34:32;;;;;;;14.63;6.07;;;6.00;1.00;;;;;;6285287;28;20237;-57
2022/01/28 09:37:36;;;;;;;13.63;6.07;;;5.80;1.00;;;;;;6281135;28;20253;-58
2022/01/28 09:40:39;;;;;;;14.97;6.47;;;6.00;1.00;;;;;;6283676;28;20241;-58
2022/01/28 09:43:44;;;;;;;22.23;7.20;;;6.10;1.00;;;;;;6283831;28;20322;-57
2022/01/28 09:46:47;;;;;;;21.07;6.30;;;6.30;1.00;;;;;;6285852;28;20233;-59
2022/01/28 09:49:56;;;;;;;18.40;6.03;;;6.40;1.00;;;;;;6277963;28;20229;-57
2022/01/28 09:53:01;;;;;;;12.50;6.53;;;6.20;1.00;;;;;;6271792;28;20537;-56
2022/01/28 09:56:04;;;;;;;16.67;6.90;;;6.20;1.00;;;;;;6280067;28;20241;-57
2022/01/28 09:59:07;;;;;;;16.63;6.00;;;6.40;1.00;;;;;;6278514;28;20467;-58
2022/01/28 10:02:10;;;;;;;19.83;6.00;;;6.40;1.00;;;;;;6279772;28;20241;-57
2022/01/28 10:05:18;;;;;;;19.43;6.33;;;6.50;1.00;;;;;;6277336;28;20234;-56
2022/01/28 10:08:24;;;;;;;18.17;6.30;;;6.60;1.00;;;;;;6272556;28;20739;-58
2022/01/28 10:11:27;;;;;;;20.43;5.80;;;6.60;1.00;;;;;;6281647;28;20245;-58
2022/01/28 10:14:30;;;;;;;24.67;6.80;;;6.50;1.00;;;;;;6280906;28;20829;-59
2022/01/28 10:17:52;;;;;;;18.53;5.90;;;6.70;1.00;;;;;;6276260;28;20234;-59
2022/01/28 10:20:55;;;;;;;13.87;6.23;;;6.50;1.00;;;;;;6277980;28;20232;-57
2022/01/28 10:24:15;;;;;;;19.00;5.40;;;6.70;1.00;;;;;;6277923;28;20743;-57
2022/01/28 10:27:19;;;;;;;17.87;5.70;;;6.70;1.00;;;;;;6281445;28;20447;-58
2022/01/28 10:30:22;;;;;;;14.67;6.13;;;6.70;1.00;;;;;;6276686;28;20306;-57
2022/01/28 10:33:26;;;;;;;20.57;6.23;;;6.80;1.00;;;;;;6282427;28;20840;-57
2022/01/28 10:36:28;;;;;;;14.03;5.33;;;6.90;1.00;;;;;;6283788;28;20234;-54
2022/01/28 10:39:39;;;;;;;16.17;5.83;;;7.00;1.00;;;;;;6284932;28;20786;-53
2022/01/28 10:42:50;;;;;;;11.70;5.27;;;6.90;1.00;;;;;;6285334;28;20241;-57
2022/01/28 10:46:04;;;;;;;14.17;5.23;;;6.90;1.00;;;;;;6277223;28;20447;-57
2022/01/28 10:49:08;;;;;;;17.57;6.13;;;7.10;1.00;;;;;;6266890;28;20244;-57
2022/01/28 10:52:12;;;;;;;16.57;6.00;;;6.90;1.00;;;;;;6279782;28;20229;-57
2022/01/28 10:55:19;;;;;;;12.90;5.73;;;7.00;1.00;;;;;;6284300;28;20237;-56
2022/01/28 10:58:25;;;;;;;9.53;5.80;;;7.00;1.00;;;;;;6275521;28;20257;-58
2022/01/28 11:01:27;;;;;;;12.93;5.70;;;7.00;1.00;;;;;;6285110;28;20236;-57
2022/01/28 11:04:33;;;;;;;18.73;6.20;;;6.90;1.00;;;;;;6283613;28;20237;-58
2022/01/28 11:07:36;;;;;;;17.73;6.10;;;7.00;1.00;;;;;;6283760;28;20237;-58
2022/01/28 11:10:42;;;;;;;13.80;6.07;;;7.10;1.00;;;;;;6282013;28;20272;-58
2022/01/28 11:13:46;;;;;;;13.27;5.90;;;7.10;1.00;;;;;;6264442;28;20492;-58
2022/01/28 11:16:48;;;;;;;13.17;5.57;;;7.00;1.00;;;;;;6271833;28;20756;-58
2022/01/28 11:19:53;;;;;;;17.40;6.13;;;7.00;1.00;;;;;;6277213;28;20241;-58
2022/01/28 11:23:08;;;;;;;18.23;5.73;;;7.10;1.00;;;;;;6277605;28;20315;-58
2022/01/28 11:26:18;;;;;;;16.70;5.67;;;7.20;1.00;;;;;;6277377;28;20737;-58
2022/01/28 11:29:25;;;;;;;13.60;5.27;;;7.20;1.00;;;;;;6273858;28;20851;-56
2022/01/28 11:32:28;;;;;;;6.77;4.67;;;7.40;1.00;;;;;;6279372;28;20260;-57
2022/01/28 11:35:35;;;;;;;11.43;5.97;;;7.60;1.00;;;;;;6284713;28;20319;-57
2022/01/28 11:38:42;;;;;;;18.23;5.60;;;7.60;1.00;;;;;;6271190;28;20797;-58
2022/01/28 11:42:04;;;;;;;9.67;4.80;;;7.50;1.00;;;;;;6278505;28;20424;-56
2022/01/28 11:45:09;;;;;;;13.13;5.73;;;7.40;1.00;;;;;;6275559;28;20238;-58
2022/01/28 11:48:12;;;;;;;9.87;5.23;;;7.20;1.00;;;;;;6272640;28;20735;-58
2022/01/28 11:51:16;;;;;;;13.80;4.93;;;7.30;1.00;;;;;;6272275;28;20463;-59
2022/01/28 11:54:37;;;;;;;10.07;5.10;;;7.40;1.00;;;;;;6274102;28;20283;-58
2022/01/28 11:57:50;;;;;;;21.30;4.97;;;7.40;1.00;;;;;;6272895;28;20226;-58
2022/01/28 12:00:55;;;;;;;8.90;4.93;;;7.40;1.00;;;;;;6278240;28;20299;-56
2022/01/28 12:04:32;;;;;;;9.67;4.60;;;7.40;1.00;;;;;;6276467;28;20229;-57
2022/01/28 12:07:37;;;;;;;12.83;5.40;;;7.40;1.00;;;;;;6270231;28;20237;-57
2022/01/28 12:10:43;;;;;;;12.83;5.87;;;7.50;1.00;;;;;;6270817;28;20261;-56
2022/01/28 12:14:01;;;;;;;12.43;4.97;;;7.50;1.00;;;;;;6274983;28;20240;-58
2022/01/28 12:17:41;;;;;;;11.43;4.60;;;7.50;1.00;;;;;;6273829;28;20237;-58
2022/01/28 12:21:13;;;;;;;11.00;4.93;;;7.50;1.00;;;;;;6272709;28;20282;-59
2022/01/28 12:24:32;;;;;;;15.40;4.80;;;7.60;1.00;;;;;;6274610;28;20253;-57
2022/01/28 12:27:35;;;;;;;14.83;5.43;;;7.80;1.00;;;;;;6273447;28;22589;-58
2022/01/28 12:30:40;;;;;;;7.00;3.97;;;7.90;1.00;;;;;;6277561;28;20245;-59
2022/01/28 12:33:44;;;;;;;6.80;4.20;;;8.00;1.00;;;;;;6280778;28;20753;-57
2022/01/28 12:36:48;;;;;;;9.83;5.03;;;7.90;1.00;;;;;;6281630;28;20531;-60
2022/01/28 12:39:59;;;;;;;9.97;5.10;;;7.90;1.00;;;;;;6277828;28;20485;-58
2022/01/28 12:43:02;;;;;;;9.70;5.13;;;7.70;1.00;;;;;;6272133;28;20261;-60
2022/01/28 12:46:08;;;;;;;10.27;5.20;;;7.60;1.00;;;;;;6278671;28;20245;-58
2022/01/28 12:49:11;;;;;;;6.97;4.33;;;7.60;1.00;;;;;;6272664;28;20313;-57
2022/01/28 12:52:14;;;;;;;10.50;5.37;;;7.50;1.00;;;;;;6278822;28;20761;-58
2022/01/28 12:55:17;;;;;;;10.77;4.90;;;7.50;1.00;;;;;;6279554;28;20298;-58
2022/01/28 12:58:31;;;;;;;10.77;5.00;;;7.70;1.00;;;;;;6279161;28;20233;-58
2022/01/28 13:01:36;;;;;;;12.60;4.53;;;7.70;1.00;;;;;;6279834;28;20248;-58
2022/01/28 13:04:59;;;;;;;7.93;4.50;;;7.70;1.00;;;;;;6278969;28;20237;-59
2022/01/28 13:11:24;;;;;;;9.53;4.20;;;7.80;1.00;;;;;;6274528;28;20226;-58
2022/01/28 13:14:32;;;;;;;11.77;4.73;;;7.80;1.00;;;;;;6282039;28;20229;-58
2022/01/28 13:17:41;;;;;;;8.73;4.40;;;7.70;1.00;;;;;;6278787;28;20646;-58
2022/01/28 13:20:43;;;;;;;6.07;4.30;;;7.80;1.00;;;;;;6278507;28;20244;-59
2022/01/28 13:23:47;;;;;;;10.70;4.30;;;7.70;1.00;;;;;;6281061;28;20684;-59
2022/01/28 13:26:59;;;;;;;13.17;4.30;;;7.60;1.00;;;;;;6282735;28;20234;-57
2022/01/28 13:30:12;;;;;;;11.63;4.60;;;7.60;1.00;;;;;;6275018;28;20716;-59
2022/01/28 13:33:28;;;;;;;12.70;4.63;;;7.60;1.00;;;;;;6276894;28;20383;-59
2022/01/28 13:36:44;;;;;;;6.63;3.87;;;7.70;1.00;;;;;;6279441;28;20323;-60
2022/01/28 13:39:47;;;;;;;10.67;4.87;;;7.70;1.00;;;;;;6281469;28;20312;-59
2022/01/28 13:42:57;;;;;;;9.40;4.57;;;7.80;1.00;;;;;;6276726;28;20315;-60
2022/01/28 13:46:05;;;;;;;9.47;4.23;;;7.90;1.00;;;;;;6275565;28;20330;-57
2022/01/28 13:49:16;;;;;;;7.23;4.50;;;7.90;1.00;;;;;;6272635;28;20733;-57
2022/01/28 13:52:25;;;;;;;6.50;4.43;;;7.80;1.00;;;;;;6273803;28;20260;-58
2022/01/28 13:55:34;;;;;;;8.07;3.97;;;7.70;1.00;;;;;;6274922;28;20237;-58
2022/01/28 13:58:50;;;;;;;7.57;4.33;;;7.70;1.00;;;;;;6281244;28;20610;-57
2022/01/28 14:01:54;;;;;;;12.90;6.17;;;7.60;1.00;;;;;;6271591;28;20657;-59
2022/01/28 14:05:00;;;;;;;9.73;4.43;;;7.60;1.00;;;;;;6276923;28;20233;-56
2022/01/28 14:08:03;;;;;;;9.93;4.10;;;7.60;1.00;;;;;;6277245;28;20657;-58
2022/01/28 14:11:20;;;;;;;8.63;4.07;;;7.60;1.00;;;;;;6278719;28;20233;-57
2022/01/28 14:14:25;;;;;;;8.80;4.23;;;7.60;1.00;;;;;;6276882;28;20234;-58
2022/01/28 14:17:36;;;;;;;6.63;3.67;;;7.50;1.00;;;;;;6284036;28;20229;-60
2022/01/28 14:20:40;;;;;;;10.23;4.40;;;7.50;1.00;;;;;;6284111;28;20238;-58
2022/01/28 14:23:43;;;;;;;12.43;4.77;;;7.50;1.00;;;;;;6283754;28;20272;-58
2022/01/28 14:26:56;;;;;;;6.07;4.03;;;7.40;1.00;;;;;;6283454;28;20234;-59
2022/01/28 14:30:03;;;;;;;5.53;3.80;;;7.40;1.00;;;;;;6271849;28;20287;-59
2022/01/28 14:33:07;;;;;;;6.80;3.83;;;7.40;1.00;;;;;;6281754;28;20243;-57
2022/01/28 14:36:11;;;;;;;8.60;3.97;;;7.30;1.00;;;;;;6282078;28;20320;-57
2022/01/28 14:39:27;;;;;;;6.23;3.90;;;7.20;1.00;;;;;;6276689;28;20226;-58
2022/01/28 14:42:30;;;;;;;4.20;3.90;;;7.20;1.00;;;;;;6276833;28;20306;-57
2022/01/28 14:45:33;;;;;;;9.50;4.63;;;7.20;1.00;;;;;;6276055;28;20233;-57
2022/01/28 14:48:36;;;;;;;6.90;4.00;;;7.10;1.00;;;;;;6274080;28;20689;-57
2022/01/28 14:51:41;;;;;;;5.50;4.20;;;7.00;1.00;;;;;;6283063;28;20651;-59
2022/01/28 14:54:43;;;;;;;7.17;4.20;;;6.80;1.00;;;;;;6273851;28;20237;-60
2022/01/28 14:57:46;;;;;;;6.57;4.27;;;7.10;1.00;;;;;;6275666;28;20230;-59
2022/01/28 15:00:49;;;;;;;6.90;4.03;;;7.00;1.00;;;;;;6275524;28;20264;-59
2022/01/28 15:03:53;;;;;;;6.47;4.03;;;6.70;1.00;;;;;;6274785;28;20229;-59
2022/01/28 15:06:57;;;;;;;6.63;4.17;;;6.70;1.00;;;;;;6274939;28;20226;-58
2022/01/28 15:10:03;;;;;;;7.47;4.30;;;6.90;1.00;;;;;;6290379;28;20329;-58
2022/01/28 15:13:06;;;;;;;3.80;3.53;;;6.60;1.00;;;;;;6287088;28;20530;-59
2022/01/28 15:16:08;;;;;;;8.13;4.20;;;6.60;1.00;;;;;;6287507;28;20704;-59
2022/01/28 15:19:12;;;;;;;11.30;4.40;;;6.50;1.00;;;;;;6273482;28;20401;-59
2022/01/28 15:22:16;;;;;;;9.73;4.60;;;6.60;1.00;;;;;;6279780;28;20383;-60
2022/01/28 15:25:19;;;;;;;6.97;3.63;;;6.50;1.00;;;;;;6283095;28;20229;-59
2022/01/28 15:28:24;;;;;;;5.10;4.13;;;6.30;1.00;;;;;;6268979;28;20321;-58
2022/01/28 15:35:03;;;;;;;4.07;3.50;;;6.20;1.00;;;;;;6281585;28;20380;-60
2022/01/28 15:38:07;;;;;;;10.23;4.00;;;6.00;1.00;;;;;;6281446;28;20487;-58
2022/01/28 15:41:12;;;;;;;8.53;4.60;;;6.10;1.00;;;;;;6279742;28;20283;-59
2022/01/28 15:44:15;;;;;;;9.57;4.27;;;6.20;1.00;;;;;;6273841;28;20228;-59
2022/01/28 15:47:19;;;;;;;6.37;4.00;;;6.10;1.00;;;;;;6275722;28;20275;-59
2022/01/28 15:50:24;;;;;;;6.40;4.17;;;5.90;1.00;;;;;;6277763;28;20240;-58
2022/01/28 15:53:28;;;;;;;10.57;4.50;;;5.90;1.00;;;;;;6274580;28;20784;-57
2022/01/28 15:56:31;;;;;;;5.70;4.00;;;5.90;1.00;;;;;;6282215;28;20230;-57
2022/01/28 15:59:34;;;;;;;7.13;4.47;;;5.70;1.00;;;;;;6280985;28;20332;-58
2022/01/28 16:02:37;;;;;;;8.23;4.30;;;6.00;1.00;;;;;;6276745;28;20237;-58
2022/01/28 16:05:40;;;;;;;8.80;4.30;;;5.80;1.00;;;;;;6276615;28;20400;-58
2022/01/28 16:08:44;;;;;;;8.20;4.93;;;6.00;1.00;;;;;;6271141;28;20542;-59
2022/01/28 16:11:50;;;;;;;6.97;4.30;;;5.90;1.00;;;;;;6265757;28;20249;-59
2022/01/28 16:14:54;;;;;;;8.10;4.23;;;5.70;1.00;;;;;;6277007;28;20309;-59
2022/01/28 16:17:56;;;;;;;6.23;4.40;;;5.80;1.00;;;;;;6282271;28;20395;-59
2022/01/28 16:20:59;;;;;;;8.53;4.30;;;5.90;1.00;;;;;;6271634;28;20320;-58
2022/01/28 16:24:04;;;;;;;9.23;4.20;;;5.70;1.00;;;;;;6281434;28;20615;-60
2022/01/28 16:27:07;;;;;;;6.63;4.77;;;5.80;1.00;;;;;;6278877;28;20257;-60
2022/01/28 16:30:11;;;;;;;8.23;4.07;;;5.50;1.00;;;;;;6272971;28;20247;-58
2022/01/28 16:33:14;;;;;;;5.33;3.83;;;5.80;1.00;;;;;;6278556;28;20587;-59
2022/01/28 16:36:17;;;;;;;9.50;4.23;;;5.40;1.00;;;;;;6277003;28;20788;-59
2022/01/28 16:39:23;;;;;;;8.70;4.50;;;5.40;1.00;;;;;;6280161;28;20237;-59
2022/01/28 16:42:29;;;;;;;5.47;4.30;;;5.30;1.00;;;;;;6273673;28;20234;-60
2022/01/28 16:45:33;;;;;;;6.60;4.33;;;5.40;1.00;;;;;;6280237;28;20229;-59
2022/01/28 16:48:35;;;;;;;7.00;3.93;;;5.70;1.00;;;;;;6277755;28;20324;-57
2022/01/28 16:51:38;;;;;;;11.73;4.87;;;5.20;1.00;;;;;;6279777;28;20232;-58
2022/01/28 16:54:45;;;;;;;6.60;4.27;;;5.30;1.00;;;;;;6279254;28;20395;-58
2022/01/28 16:57:52;;;;;;;9.63;4.33;;;5.30;1.00;;;;;;6277011;28;20564;-61
2022/01/28 17:00:55;;;;;;;5.80;4.57;;;5.20;1.00;;;;;;6275649;28;21176;-59
2022/01/28 17:03:59;;;;;;;7.33;4.67;;;5.10;1.00;;;;;;6261655;28;20237;-56
2022/01/28 17:07:02;;;;;;;8.40;4.57;;;5.30;1.00;;;;;;6277317;28;20736;-60
2022/01/28 17:10:10;;;;;;;15.50;5.33;;;5.10;1.00;;;;;;6278342;28;21693;-59
2022/01/28 17:13:14;;;;;;;11.33;5.00;;;5.00;1.00;;;;;;6279188;28;20264;-59